sensor_id;sensor_type;location;lat;lon;timestamp;P1;durP1;ratioP1;P2;durP2;ratioP2
34960;SDS011;30789;52.030;7.110;2023-02-28T00:01:08;6.53;;;4.38;;
34960;SDS011;30789;52.030;7.110;2023-02-28T00:03:35;9.27;;;4.93;;
34960;SDS011;30789;52.030;7.110;2023-02-28T00:06:02;7.07;;;5.03;;
34960;SDS011;30789;52.030;7.110;2023-02-28T00:08:28;7.35;;;4.82;;
34960;SDS011;30789;52.030;7.110;2023-02-28T00:10:56;7.97;;;5.28;;
34960;SDS011;30789;52.030;7.110;2023-02-28T00:13:22;7.10;;;4.05;;
34960;SDS011;30789;52.030;7.110;2023-02-28T00:15:57;7.70;;;4.25;;
34960;SDS011;30789;52.030;7.110;2023-02-28T00:18:24;7.15;;;4.25;;
34960;SDS011;30789;52.030;7.110;2023-02-28T00:20:50;8.82;;;4.35;;
34960;SDS011;30789;52.030;7.110;2023-02-28T00:23:16;7.47;;;4.30;;
34960;SDS011;30789;52.030;7.110;2023-02-28T00:25:43;6.53;;;4.28;;
34960;SDS011;30789;52.030;7.110;2023-02-28T00:28:10;6.28;;;4.00;;
34960;SDS011;30789;52.030;7.110;2023-02-28T00:30:37;7.90;;;4.40;;
34960;SDS011;30789;52.030;7.110;2023-02-28T00:33:03;6.30;;;4.10;;
34960;SDS011;30789;52.030;7.110;2023-02-28T00:35:29;6.03;;;4.05;;
34960;SDS011;30789;52.030;7.110;2023-02-28T00:37:55;5.93;;;4.28;;
34960;SDS011;30789;52.030;7.110;2023-02-28T00:40:22;8.52;;;5.15;;
34960;SDS011;30789;52.030;7.110;2023-02-28T00:42:48;6.55;;;3.58;;
34960;SDS011;30789;52.030;7.110;2023-02-28T00:45:16;5.40;;;4.20;;
34960;SDS011;30789;52.030;7.110;2023-02-28T00:47:42;6.72;;;4.10;;
34960;SDS011;30789;52.030;7.110;2023-02-28T00:50:09;5.57;;;3.70;;
34960;SDS011;30789;52.030;7.110;2023-02-28T00:52:35;9.73;;;4.47;;
34960;SDS011;30789;52.030;7.110;2023-02-28T00:55:01;10.98;;;4.68;;
34960;SDS011;30789;52.030;7.110;2023-02-28T00:57:28;6.93;;;4.45;;
34960;SDS011;30789;52.030;7.110;2023-02-28T00:59:54;6.82;;;4.25;;
34960;SDS011;30789;52.030;7.110;2023-02-28T01:02:22;7.72;;;4.78;;
34960;SDS011;30789;52.030;7.110;2023-02-28T01:04:48;6.35;;;4.65;;
34960;SDS011;30789;52.030;7.110;2023-02-28T01:07:15;7.28;;;4.85;;
34960;SDS011;30789;52.030;7.110;2023-02-28T01:09:41;12.30;;;5.05;;
34960;SDS011;30789;52.030;7.110;2023-02-28T01:12:08;8.75;;;4.20;;
34960;SDS011;30789;52.030;7.110;2023-02-28T01:14:34;6.30;;;4.43;;
34960;SDS011;30789;52.030;7.110;2023-02-28T01:17:00;6.63;;;4.38;;
34960;SDS011;30789;52.030;7.110;2023-02-28T01:19:28;5.95;;;3.78;;
34960;SDS011;30789;52.030;7.110;2023-02-28T01:21:54;4.72;;;3.65;;
34960;SDS011;30789;52.030;7.110;2023-02-28T01:24:21;5.38;;;3.35;;
34960;SDS011;30789;52.030;7.110;2023-02-28T01:26:47;6.47;;;3.15;;
34960;SDS011;30789;52.030;7.110;2023-02-28T01:29:13;6.13;;;3.83;;
34960;SDS011;30789;52.030;7.110;2023-02-28T01:31:40;6.55;;;4.05;;
34960;SDS011;30789;52.030;7.110;2023-02-28T01:34:07;5.55;;;3.40;;
34960;SDS011;30789;52.030;7.110;2023-02-28T01:36:34;7.72;;;4.05;;
34960;SDS011;30789;52.030;7.110;2023-02-28T01:39:01;4.38;;;3.42;;
34960;SDS011;30789;52.030;7.110;2023-02-28T01:41:28;5.53;;;3.40;;
34960;SDS011;30789;52.030;7.110;2023-02-28T01:43:57;7.18;;;3.88;;
34960;SDS011;30789;52.030;7.110;2023-02-28T01:46:23;4.20;;;3.30;;
34960;SDS011;30789;52.030;7.110;2023-02-28T01:48:51;6.20;;;3.40;;
34960;SDS011;30789;52.030;7.110;2023-02-28T01:51:19;8.10;;;3.25;;
34960;SDS011;30789;52.030;7.110;2023-02-28T01:53:49;6.72;;;3.92;;
34960;SDS011;30789;52.030;7.110;2023-02-28T01:56:17;6.10;;;3.88;;
34960;SDS011;30789;52.030;7.110;2023-02-28T01:58:45;4.95;;;3.47;;
34960;SDS011;30789;52.030;7.110;2023-02-28T02:01:12;10.23;;;4.00;;
34960;SDS011;30789;52.030;7.110;2023-02-28T02:03:46;5.68;;;3.45;;
34960;SDS011;30789;52.030;7.110;2023-02-28T02:06:12;6.00;;;3.83;;
34960;SDS011;30789;52.030;7.110;2023-02-28T02:08:39;5.55;;;3.70;;
34960;SDS011;30789;52.030;7.110;2023-02-28T02:11:07;6.38;;;3.65;;
34960;SDS011;30789;52.030;7.110;2023-02-28T02:13:38;9.82;;;3.97;;
34960;SDS011;30789;52.030;7.110;2023-02-28T02:16:13;5.05;;;3.42;;
34960;SDS011;30789;52.030;7.110;2023-02-28T02:18:42;6.03;;;3.70;;
34960;SDS011;30789;52.030;7.110;2023-02-28T02:21:17;5.55;;;4.05;;
34960;SDS011;30789;52.030;7.110;2023-02-28T02:23:51;4.38;;;3.38;;
34960;SDS011;30789;52.030;7.110;2023-02-28T02:26:31;6.07;;;3.25;;
34960;SDS011;30789;52.030;7.110;2023-02-28T02:29:10;5.72;;;3.65;;
34960;SDS011;30789;52.030;7.110;2023-02-28T02:34:30;5.90;;;4.22;;
34960;SDS011;30789;52.030;7.110;2023-02-28T02:37:02;3.38;;;3.08;;
34960;SDS011;30789;52.030;7.110;2023-02-28T02:39:35;5.00;;;3.30;;
34960;SDS011;30789;52.030;7.110;2023-02-28T02:42:04;4.60;;;3.28;;
34960;SDS011;30789;52.030;7.110;2023-02-28T02:44:36;5.82;;;3.38;;
34960;SDS011;30789;52.030;7.110;2023-02-28T02:47:06;4.90;;;3.92;;
34960;SDS011;30789;52.030;7.110;2023-02-28T02:49:36;6.18;;;3.58;;
34960;SDS011;30789;52.030;7.110;2023-02-28T02:52:03;6.32;;;3.25;;
34960;SDS011;30789;52.030;7.110;2023-02-28T02:54:31;3.45;;;3.03;;
34960;SDS011;30789;52.030;7.110;2023-02-28T02:57:01;7.72;;;4.22;;
34960;SDS011;30789;52.030;7.110;2023-02-28T02:59:29;6.05;;;3.97;;
34960;SDS011;30789;52.030;7.110;2023-02-28T03:01:56;5.13;;;4.35;;
34960;SDS011;30789;52.030;7.110;2023-02-28T03:04:24;7.38;;;3.95;;
34960;SDS011;30789;52.030;7.110;2023-02-28T03:06:52;7.57;;;3.95;;
34960;SDS011;30789;52.030;7.110;2023-02-28T03:09:19;4.57;;;3.90;;
34960;SDS011;30789;52.030;7.110;2023-02-28T03:11:45;6.65;;;3.80;;
34960;SDS011;30789;52.030;7.110;2023-02-28T03:17:02;7.85;;;3.83;;
34960;SDS011;30789;52.030;7.110;2023-02-28T03:19:34;6.32;;;3.30;;
34960;SDS011;30789;52.030;7.110;2023-02-28T03:22:07;6.35;;;3.17;;
34960;SDS011;30789;52.030;7.110;2023-02-28T03:24:39;8.40;;;3.55;;
34960;SDS011;30789;52.030;7.110;2023-02-28T03:27:09;5.32;;;3.78;;
34960;SDS011;30789;52.030;7.110;2023-02-28T03:29:38;6.55;;;3.75;;
34960;SDS011;30789;52.030;7.110;2023-02-28T03:32:05;7.07;;;3.65;;
34960;SDS011;30789;52.030;7.110;2023-02-28T03:34:37;5.35;;;3.42;;
34960;SDS011;30789;52.030;7.110;2023-02-28T03:37:07;5.95;;;3.60;;
34960;SDS011;30789;52.030;7.110;2023-02-28T03:39:35;5.10;;;3.20;;
34960;SDS011;30789;52.030;7.110;2023-02-28T03:42:04;3.97;;;2.65;;
34960;SDS011;30789;52.030;7.110;2023-02-28T03:44:32;4.57;;;3.45;;
34960;SDS011;30789;52.030;7.110;2023-02-28T03:47:02;3.53;;;2.97;;
34960;SDS011;30789;52.030;7.110;2023-02-28T03:49:30;6.88;;;3.35;;
34960;SDS011;30789;52.030;7.110;2023-02-28T03:51:59;4.85;;;3.35;;
34960;SDS011;30789;52.030;7.110;2023-02-28T03:54:29;4.93;;;2.85;;
34960;SDS011;30789;52.030;7.110;2023-02-28T03:56:57;4.88;;;3.25;;
34960;SDS011;30789;52.030;7.110;2023-02-28T03:59:28;5.07;;;3.57;;
34960;SDS011;30789;52.030;7.110;2023-02-28T04:01:54;7.10;;;3.10;;
34960;SDS011;30789;52.030;7.110;2023-02-28T04:04:23;7.65;;;3.67;;
34960;SDS011;30789;52.030;7.110;2023-02-28T04:06:49;3.60;;;2.60;;
34960;SDS011;30789;52.030;7.110;2023-02-28T04:09:16;4.57;;;3.25;;
34960;SDS011;30789;52.030;7.110;2023-02-28T04:11:44;4.03;;;2.85;;
34960;SDS011;30789;52.030;7.110;2023-02-28T04:14:11;4.00;;;2.90;;
34960;SDS011;30789;52.030;7.110;2023-02-28T04:16:38;4.40;;;3.05;;
34960;SDS011;30789;52.030;7.110;2023-02-28T04:19:05;3.72;;;2.33;;
34960;SDS011;30789;52.030;7.110;2023-02-28T04:21:32;3.65;;;2.72;;
34960;SDS011;30789;52.030;7.110;2023-02-28T04:23:58;4.35;;;2.80;;
34960;SDS011;30789;52.030;7.110;2023-02-28T04:26:25;4.28;;;3.10;;
34960;SDS011;30789;52.030;7.110;2023-02-28T04:28:53;4.07;;;3.10;;
34960;SDS011;30789;52.030;7.110;2023-02-28T04:31:19;5.90;;;3.33;;
34960;SDS011;30789;52.030;7.110;2023-02-28T04:33:45;5.32;;;2.83;;
34960;SDS011;30789;52.030;7.110;2023-02-28T04:36:11;4.90;;;3.17;;
34960;SDS011;30789;52.030;7.110;2023-02-28T04:38:39;7.80;;;2.97;;
34960;SDS011;30789;52.030;7.110;2023-02-28T04:41:05;4.50;;;3.25;;
34960;SDS011;30789;52.030;7.110;2023-02-28T04:43:32;5.43;;;3.42;;
34960;SDS011;30789;52.030;7.110;2023-02-28T04:46:00;4.93;;;3.58;;
34960;SDS011;30789;52.030;7.110;2023-02-28T04:48:27;6.70;;;3.47;;
34960;SDS011;30789;52.030;7.110;2023-02-28T04:50:54;9.38;;;3.50;;
34960;SDS011;30789;52.030;7.110;2023-02-28T04:53:20;7.35;;;3.88;;
34960;SDS011;30789;52.030;7.110;2023-02-28T04:55:46;11.73;;;4.53;;
34960;SDS011;30789;52.030;7.110;2023-02-28T04:58:13;12.75;;;4.43;;
34960;SDS011;30789;52.030;7.110;2023-02-28T05:00:39;7.03;;;3.70;;
34960;SDS011;30789;52.030;7.110;2023-02-28T05:03:07;6.75;;;3.67;;
34960;SDS011;30789;52.030;7.110;2023-02-28T05:05:33;8.18;;;4.80;;
34960;SDS011;30789;52.030;7.110;2023-02-28T05:08:00;9.57;;;4.70;;
34960;SDS011;30789;52.030;7.110;2023-02-28T05:10:26;8.85;;;5.35;;
34960;SDS011;30789;52.030;7.110;2023-02-28T05:12:52;8.88;;;4.85;;
34960;SDS011;30789;52.030;7.110;2023-02-28T05:15:18;11.63;;;4.60;;
34960;SDS011;30789;52.030;7.110;2023-02-28T05:17:45;9.80;;;5.47;;
34960;SDS011;30789;52.030;7.110;2023-02-28T05:20:12;10.65;;;5.05;;
34960;SDS011;30789;52.030;7.110;2023-02-28T05:22:39;9.35;;;5.70;;
34960;SDS011;30789;52.030;7.110;2023-02-28T05:25:06;5.88;;;3.60;;
34960;SDS011;30789;52.030;7.110;2023-02-28T05:27:32;5.30;;;4.20;;
34960;SDS011;30789;52.030;7.110;2023-02-28T05:29:59;6.43;;;4.03;;
34960;SDS011;30789;52.030;7.110;2023-02-28T05:32:28;5.55;;;3.50;;
34960;SDS011;30789;52.030;7.110;2023-02-28T05:34:54;3.42;;;3.13;;
34960;SDS011;30789;52.030;7.110;2023-02-28T05:37:22;5.82;;;3.80;;
34960;SDS011;30789;52.030;7.110;2023-02-28T05:39:48;5.35;;;3.47;;
34960;SDS011;30789;52.030;7.110;2023-02-28T05:42:14;7.35;;;3.80;;
34960;SDS011;30789;52.030;7.110;2023-02-28T05:44:41;5.07;;;4.05;;
34960;SDS011;30789;52.030;7.110;2023-02-28T05:47:07;9.07;;;3.92;;
34960;SDS011;30789;52.030;7.110;2023-02-28T05:49:33;5.18;;;3.92;;
34960;SDS011;30789;52.030;7.110;2023-02-28T05:51:59;7.03;;;3.58;;
34960;SDS011;30789;52.030;7.110;2023-02-28T05:54:27;5.47;;;3.28;;
34960;SDS011;30789;52.030;7.110;2023-02-28T05:56:53;3.72;;;3.10;;
34960;SDS011;30789;52.030;7.110;2023-02-28T05:59:19;6.00;;;3.72;;
34960;SDS011;30789;52.030;7.110;2023-02-28T06:01:46;3.25;;;2.50;;
34960;SDS011;30789;52.030;7.110;2023-02-28T06:04:14;3.67;;;2.47;;
34960;SDS011;30789;52.030;7.110;2023-02-28T06:06:42;8.00;;;3.65;;
34960;SDS011;30789;52.030;7.110;2023-02-28T06:09:09;2.70;;;1.98;;
34960;SDS011;30789;52.030;7.110;2023-02-28T06:11:37;4.90;;;3.15;;
34960;SDS011;30789;52.030;7.110;2023-02-28T06:14:04;4.50;;;2.38;;
34960;SDS011;30789;52.030;7.110;2023-02-28T06:16:31;4.45;;;3.15;;
34960;SDS011;30789;52.030;7.110;2023-02-28T06:18:58;4.65;;;3.30;;
34960;SDS011;30789;52.030;7.110;2023-02-28T06:21:25;3.90;;;2.88;;
34960;SDS011;30789;52.030;7.110;2023-02-28T06:23:52;3.38;;;2.67;;
34960;SDS011;30789;52.030;7.110;2023-02-28T06:26:18;7.55;;;3.95;;
34960;SDS011;30789;52.030;7.110;2023-02-28T06:28:46;7.13;;;3.20;;
34960;SDS011;30789;52.030;7.110;2023-02-28T06:31:13;4.47;;;3.10;;
34960;SDS011;30789;52.030;7.110;2023-02-28T06:33:40;2.90;;;2.30;;
34960;SDS011;30789;52.030;7.110;2023-02-28T06:36:07;5.15;;;2.90;;
34960;SDS011;30789;52.030;7.110;2023-02-28T06:38:34;6.38;;;3.03;;
34960;SDS011;30789;52.030;7.110;2023-02-28T06:41:00;10.50;;;2.95;;
34960;SDS011;30789;52.030;7.110;2023-02-28T06:43:27;4.32;;;2.92;;
34960;SDS011;30789;52.030;7.110;2023-02-28T06:45:55;3.28;;;2.53;;
34960;SDS011;30789;52.030;7.110;2023-02-28T06:48:22;6.70;;;3.80;;
34960;SDS011;30789;52.030;7.110;2023-02-28T06:50:48;4.88;;;3.22;;
34960;SDS011;30789;52.030;7.110;2023-02-28T06:53:15;5.90;;;3.08;;
34960;SDS011;30789;52.030;7.110;2023-02-28T06:55:41;4.90;;;3.10;;
34960;SDS011;30789;52.030;7.110;2023-02-28T06:58:08;3.53;;;3.17;;
34960;SDS011;30789;52.030;7.110;2023-02-28T07:00:39;11.82;;;3.70;;
34960;SDS011;30789;52.030;7.110;2023-02-28T07:03:07;8.07;;;3.47;;
34960;SDS011;30789;52.030;7.110;2023-02-28T07:05:34;4.25;;;3.17;;
34960;SDS011;30789;52.030;7.110;2023-02-28T07:08:00;4.45;;;3.38;;
34960;SDS011;30789;52.030;7.110;2023-02-28T07:10:27;8.45;;;3.45;;
34960;SDS011;30789;52.030;7.110;2023-02-28T07:12:53;3.80;;;3.22;;
34960;SDS011;30789;52.030;7.110;2023-02-28T07:15:19;5.60;;;4.05;;
34960;SDS011;30789;52.030;7.110;2023-02-28T07:17:45;7.65;;;4.13;;
34960;SDS011;30789;52.030;7.110;2023-02-28T07:20:13;5.82;;;3.42;;
34960;SDS011;30789;52.030;7.110;2023-02-28T07:22:39;6.45;;;3.10;;
34960;SDS011;30789;52.030;7.110;2023-02-28T07:25:07;6.05;;;3.70;;
34960;SDS011;30789;52.030;7.110;2023-02-28T07:27:33;5.68;;;3.60;;
34960;SDS011;30789;52.030;7.110;2023-02-28T07:29:59;6.95;;;4.25;;
34960;SDS011;30789;52.030;7.110;2023-02-28T07:32:28;17.95;;;4.65;;
34960;SDS011;30789;52.030;7.110;2023-02-28T07:34:54;6.53;;;4.75;;
34960;SDS011;30789;52.030;7.110;2023-02-28T07:37:22;9.13;;;4.70;;
34960;SDS011;30789;52.030;7.110;2023-02-28T07:39:48;9.38;;;5.30;;
34960;SDS011;30789;52.030;7.110;2023-02-28T07:42:16;7.88;;;4.93;;
34960;SDS011;30789;52.030;7.110;2023-02-28T07:44:42;8.23;;;4.00;;
34960;SDS011;30789;52.030;7.110;2023-02-28T07:47:09;4.90;;;4.05;;
34960;SDS011;30789;52.030;7.110;2023-02-28T07:49:35;5.95;;;3.75;;
34960;SDS011;30789;52.030;7.110;2023-02-28T07:52:02;6.60;;;3.90;;
34960;SDS011;30789;52.030;7.110;2023-02-28T07:54:30;10.38;;;3.92;;
34960;SDS011;30789;52.030;7.110;2023-02-28T07:56:56;8.02;;;4.15;;
34960;SDS011;30789;52.030;7.110;2023-02-28T07:59:22;7.75;;;4.03;;
34960;SDS011;30789;52.030;7.110;2023-02-28T08:01:49;6.00;;;3.58;;
34960;SDS011;30789;52.030;7.110;2023-02-28T08:04:15;7.53;;;4.70;;
34960;SDS011;30789;52.030;7.110;2023-02-28T08:06:42;5.05;;;3.70;;
34960;SDS011;30789;52.030;7.110;2023-02-28T08:09:08;5.13;;;3.90;;
34960;SDS011;30789;52.030;7.110;2023-02-28T08:11:36;4.07;;;3.45;;
34960;SDS011;30789;52.030;7.110;2023-02-28T08:14:02;5.53;;;3.53;;
34960;SDS011;30789;52.030;7.110;2023-02-28T08:16:28;7.53;;;3.80;;
34960;SDS011;30789;52.030;7.110;2023-02-28T08:18:55;5.00;;;3.40;;
34960;SDS011;30789;52.030;7.110;2023-02-28T08:21:21;6.70;;;3.67;;
34960;SDS011;30789;52.030;7.110;2023-02-28T08:23:47;5.65;;;3.53;;
34960;SDS011;30789;52.030;7.110;2023-02-28T08:26:14;8.90;;;3.15;;
34960;SDS011;30789;52.030;7.110;2023-02-28T08:28:42;6.18;;;3.38;;
34960;SDS011;30789;52.030;7.110;2023-02-28T08:31:09;8.05;;;4.00;;
34960;SDS011;30789;52.030;7.110;2023-02-28T08:33:36;7.65;;;3.88;;
34960;SDS011;30789;52.030;7.110;2023-02-28T08:36:04;5.80;;;3.90;;
34960;SDS011;30789;52.030;7.110;2023-02-28T08:38:30;3.92;;;3.53;;
34960;SDS011;30789;52.030;7.110;2023-02-28T08:40:57;4.18;;;3.38;;
34960;SDS011;30789;52.030;7.110;2023-02-28T08:43:23;5.05;;;3.53;;
34960;SDS011;30789;52.030;7.110;2023-02-28T08:45:52;5.28;;;3.20;;
34960;SDS011;30789;52.030;7.110;2023-02-28T08:48:19;4.07;;;2.95;;
34960;SDS011;30789;52.030;7.110;2023-02-28T08:50:54;10.85;;;2.42;;
34960;SDS011;30789;52.030;7.110;2023-02-28T08:53:20;4.60;;;3.17;;
34960;SDS011;30789;52.030;7.110;2023-02-28T08:55:46;6.78;;;3.17;;
34960;SDS011;30789;52.030;7.110;2023-02-28T08:58:12;6.32;;;2.80;;
34960;SDS011;30789;52.030;7.110;2023-02-28T09:00:39;7.93;;;2.40;;
34960;SDS011;30789;52.030;7.110;2023-02-28T09:03:06;3.72;;;2.60;;
34960;SDS011;30789;52.030;7.110;2023-02-28T09:05:33;4.90;;;4.22;;
34960;SDS011;30789;52.030;7.110;2023-02-28T09:07:59;10.70;;;2.92;;
34960;SDS011;30789;52.030;7.110;2023-02-28T09:10:25;8.20;;;5.43;;
34960;SDS011;30789;52.030;7.110;2023-02-28T09:12:51;4.10;;;2.30;;
34960;SDS011;30789;52.030;7.110;2023-02-28T09:15:18;12.40;;;2.97;;
34960;SDS011;30789;52.030;7.110;2023-02-28T09:17:44;6.03;;;2.25;;
34960;SDS011;30789;52.030;7.110;2023-02-28T09:20:12;4.18;;;1.70;;
34960;SDS011;30789;52.030;7.110;2023-02-28T09:22:38;1.77;;;1.67;;
34960;SDS011;30789;52.030;7.110;2023-02-28T09:25:05;2.38;;;1.60;;
34960;SDS011;30789;52.030;7.110;2023-02-28T09:27:31;3.67;;;1.90;;
34960;SDS011;30789;52.030;7.110;2023-02-28T09:29:57;2.53;;;1.70;;
34960;SDS011;30789;52.030;7.110;2023-02-28T09:32:23;6.00;;;1.50;;
34960;SDS011;30789;52.030;7.110;2023-02-28T09:34:50;1.95;;;1.60;;
34960;SDS011;30789;52.030;7.110;2023-02-28T09:37:17;3.88;;;1.15;;
34960;SDS011;30789;52.030;7.110;2023-02-28T09:39:44;4.32;;;1.38;;
34960;SDS011;30789;52.030;7.110;2023-02-28T09:42:12;1.63;;;1.48;;
34960;SDS011;30789;52.030;7.110;2023-02-28T09:44:43;3.08;;;1.55;;
34960;SDS011;30789;52.030;7.110;2023-02-28T09:47:12;5.75;;;1.65;;
34960;SDS011;30789;52.030;7.110;2023-02-28T09:49:40;5.43;;;2.05;;
34960;SDS011;30789;52.030;7.110;2023-02-28T09:52:09;1.50;;;1.40;;
34960;SDS011;30789;52.030;7.110;2023-02-28T09:54:37;2.60;;;2.13;;
34960;SDS011;30789;52.030;7.110;2023-02-28T09:57:06;2.03;;;1.70;;
34960;SDS011;30789;52.030;7.110;2023-02-28T09:59:36;5.32;;;2.38;;
34960;SDS011;30789;52.030;7.110;2023-02-28T10:02:09;5.63;;;3.45;;
34960;SDS011;30789;52.030;7.110;2023-02-28T10:04:40;1.42;;;1.27;;
34960;SDS011;30789;52.030;7.110;2023-02-28T10:07:11;2.20;;;1.38;;
34960;SDS011;30789;52.030;7.110;2023-02-28T10:09:45;1.15;;;1.00;;
34960;SDS011;30789;52.030;7.110;2023-02-28T10:12:13;2.42;;;1.05;;
34960;SDS011;30789;52.030;7.110;2023-02-28T10:14:40;1.20;;;0.93;;
34960;SDS011;30789;52.030;7.110;2023-02-28T10:17:11;1.52;;;0.77;;
34960;SDS011;30789;52.030;7.110;2023-02-28T10:19:39;0.85;;;0.82;;
34960;SDS011;30789;52.030;7.110;2023-02-28T10:22:09;1.58;;;1.27;;
34960;SDS011;30789;52.030;7.110;2023-02-28T10:24:37;3.25;;;1.02;;
34960;SDS011;30789;52.030;7.110;2023-02-28T10:27:12;2.20;;;1.15;;
34960;SDS011;30789;52.030;7.110;2023-02-28T10:29:39;1.33;;;0.88;;
34960;SDS011;30789;52.030;7.110;2023-02-28T10:32:06;2.60;;;0.90;;
34960;SDS011;30789;52.030;7.110;2023-02-28T10:34:32;1.00;;;1.00;;
34960;SDS011;30789;52.030;7.110;2023-02-28T10:36:59;1.33;;;1.08;;
34960;SDS011;30789;52.030;7.110;2023-02-28T10:39:39;1.45;;;1.00;;
34960;SDS011;30789;52.030;7.110;2023-02-28T10:42:18;1.80;;;1.10;;
34960;SDS011;30789;52.030;7.110;2023-02-28T10:44:44;1.08;;;0.60;;
34960;SDS011;30789;52.030;7.110;2023-02-28T10:47:13;1.13;;;0.82;;
34960;SDS011;30789;52.030;7.110;2023-02-28T10:49:40;2.15;;;1.10;;
34960;SDS011;30789;52.030;7.110;2023-02-28T10:52:12;1.02;;;0.70;;
34960;SDS011;30789;52.030;7.110;2023-02-28T10:54:38;1.25;;;0.70;;
34960;SDS011;30789;52.030;7.110;2023-02-28T10:57:14;2.25;;;1.50;;
34960;SDS011;30789;52.030;7.110;2023-02-28T10:59:41;2.60;;;1.15;;
34960;SDS011;30789;52.030;7.110;2023-02-28T11:04:48;1.25;;;1.00;;
34960;SDS011;30789;52.030;7.110;2023-02-28T11:07:16;1.42;;;1.05;;
34960;SDS011;30789;52.030;7.110;2023-02-28T11:09:44;2.25;;;1.00;;
34960;SDS011;30789;52.030;7.110;2023-02-28T11:12:20;1.88;;;1.20;;
34960;SDS011;30789;52.030;7.110;2023-02-28T11:14:48;2.10;;;1.30;;
34960;SDS011;30789;52.030;7.110;2023-02-28T11:17:18;2.05;;;1.00;;
34960;SDS011;30789;52.030;7.110;2023-02-28T11:19:45;1.70;;;1.30;;
34960;SDS011;30789;52.030;7.110;2023-02-28T11:22:16;2.08;;;1.35;;
34960;SDS011;30789;52.030;7.110;2023-02-28T11:24:43;2.25;;;1.58;;
34960;SDS011;30789;52.030;7.110;2023-02-28T11:27:20;1.30;;;1.20;;
34960;SDS011;30789;52.030;7.110;2023-02-28T11:29:50;1.95;;;1.30;;
34960;SDS011;30789;52.030;7.110;2023-02-28T11:32:17;1.05;;;0.80;;
34960;SDS011;30789;52.030;7.110;2023-02-28T11:34:45;0.93;;;0.88;;
34960;SDS011;30789;52.030;7.110;2023-02-28T11:37:13;1.98;;;1.20;;
34960;SDS011;30789;52.030;7.110;2023-02-28T11:39:39;1.77;;;1.42;;
34960;SDS011;30789;52.030;7.110;2023-02-28T11:45:11;1.65;;;1.10;;
34960;SDS011;30789;52.030;7.110;2023-02-28T11:47:42;1.38;;;0.90;;
34960;SDS011;30789;52.030;7.110;2023-02-28T11:50:16;1.40;;;1.00;;
34960;SDS011;30789;52.030;7.110;2023-02-28T11:52:45;2.15;;;1.35;;
34960;SDS011;30789;52.030;7.110;2023-02-28T11:55:16;1.83;;;1.15;;
34960;SDS011;30789;52.030;7.110;2023-02-28T11:57:58;1.60;;;1.10;;
34960;SDS011;30789;52.030;7.110;2023-02-28T12:00:32;1.35;;;1.17;;
34960;SDS011;30789;52.030;7.110;2023-02-28T12:03:03;4.10;;;0.90;;
34960;SDS011;30789;52.030;7.110;2023-02-28T12:05:38;1.20;;;1.00;;
34960;SDS011;30789;52.030;7.110;2023-02-28T12:08:11;1.90;;;0.90;;
34960;SDS011;30789;52.030;7.110;2023-02-28T12:10:43;1.10;;;1.00;;
34960;SDS011;30789;52.030;7.110;2023-02-28T12:13:14;2.20;;;1.27;;
34960;SDS011;30789;52.030;7.110;2023-02-28T12:15:51;1.67;;;1.00;;
34960;SDS011;30789;52.030;7.110;2023-02-28T12:18:24;0.85;;;0.82;;
34960;SDS011;30789;52.030;7.110;2023-02-28T12:20:53;2.22;;;1.40;;
34960;SDS011;30789;52.030;7.110;2023-02-28T12:23:25;1.70;;;1.45;;
34960;SDS011;30789;52.030;7.110;2023-02-28T12:25:59;9.38;;;4.28;;
34960;SDS011;30789;52.030;7.110;2023-02-28T12:28:28;4.45;;;2.40;;
34960;SDS011;30789;52.030;7.110;2023-02-28T12:30:58;1.15;;;1.02;;
34960;SDS011;30789;52.030;7.110;2023-02-28T12:33:27;1.75;;;1.33;;
34960;SDS011;30789;52.030;7.110;2023-02-28T12:35:54;2.17;;;1.40;;
34960;SDS011;30789;52.030;7.110;2023-02-28T12:38:22;2.47;;;1.50;;
34960;SDS011;30789;52.030;7.110;2023-02-28T12:40:50;3.53;;;2.00;;
34960;SDS011;30789;52.030;7.110;2023-02-28T12:43:17;1.70;;;1.25;;
34960;SDS011;30789;52.030;7.110;2023-02-28T12:45:45;1.73;;;1.02;;
34960;SDS011;30789;52.030;7.110;2023-02-28T12:48:15;2.00;;;1.13;;
34960;SDS011;30789;52.030;7.110;2023-02-28T12:50:42;2.63;;;1.10;;
34960;SDS011;30789;52.030;7.110;2023-02-28T12:53:09;1.23;;;1.10;;
34960;SDS011;30789;52.030;7.110;2023-02-28T12:55:40;1.73;;;0.90;;
34960;SDS011;30789;52.030;7.110;2023-02-28T12:58:10;2.35;;;1.02;;
34960;SDS011;30789;52.030;7.110;2023-02-28T13:00:42;1.50;;;1.10;;
34960;SDS011;30789;52.030;7.110;2023-02-28T13:06:05;3.05;;;1.35;;
34960;SDS011;30789;52.030;7.110;2023-02-28T13:11:24;2.80;;;1.48;;
34960;SDS011;30789;52.030;7.110;2023-02-28T13:13:57;1.38;;;1.20;;
34960;SDS011;30789;52.030;7.110;2023-02-28T13:16:23;2.47;;;1.60;;
34960;SDS011;30789;52.030;7.110;2023-02-28T13:18:49;1.52;;;1.42;;
34960;SDS011;30789;52.030;7.110;2023-02-28T13:21:23;1.73;;;1.23;;
34960;SDS011;30789;52.030;7.110;2023-02-28T13:23:57;1.27;;;1.02;;
34960;SDS011;30789;52.030;7.110;2023-02-28T13:29:20;1.35;;;1.15;;
34960;SDS011;30789;52.030;7.110;2023-02-28T13:34:32;3.08;;;1.58;;
34960;SDS011;30789;52.030;7.110;2023-02-28T13:39:48;1.10;;;1.00;;
34960;SDS011;30789;52.030;7.110;2023-02-28T13:42:32;1.80;;;0.90;;
34960;SDS011;30789;52.030;7.110;2023-02-28T13:45:21;3.00;;;1.20;;
34960;SDS011;30789;52.030;7.110;2023-02-28T13:47:51;3.60;;;1.42;;
34960;SDS011;30789;52.030;7.110;2023-02-28T13:50:23;2.20;;;1.55;;
34960;SDS011;30789;52.030;7.110;2023-02-28T13:52:53;3.08;;;1.23;;
34960;SDS011;30789;52.030;7.110;2023-02-28T13:55:27;1.48;;;1.20;;
34960;SDS011;30789;52.030;7.110;2023-02-28T14:00:43;1.38;;;0.95;;
34960;SDS011;30789;52.030;7.110;2023-02-28T14:03:14;2.13;;;1.40;;
34960;SDS011;30789;52.030;7.110;2023-02-28T14:05:43;1.85;;;1.00;;
34960;SDS011;30789;52.030;7.110;2023-02-28T14:08:12;1.48;;;1.00;;
34960;SDS011;30789;52.030;7.110;2023-02-28T14:10:43;1.48;;;1.38;;
34960;SDS011;30789;52.030;7.110;2023-02-28T14:13:11;1.60;;;1.10;;
34960;SDS011;30789;52.030;7.110;2023-02-28T14:15:43;1.80;;;1.33;;
34960;SDS011;30789;52.030;7.110;2023-02-28T14:20:56;1.27;;;1.17;;
34960;SDS011;30789;52.030;7.110;2023-02-28T14:23:31;1.80;;;1.08;;
34960;SDS011;30789;52.030;7.110;2023-02-28T14:26:03;1.70;;;1.25;;
34960;SDS011;30789;52.030;7.110;2023-02-28T14:28:39;2.42;;;1.23;;
34960;SDS011;30789;52.030;7.110;2023-02-28T14:31:09;2.38;;;1.67;;
34960;SDS011;30789;52.030;7.110;2023-02-28T14:33:43;2.58;;;1.48;;
34960;SDS011;30789;52.030;7.110;2023-02-28T14:36:12;2.45;;;1.35;;
34960;SDS011;30789;52.030;7.110;2023-02-28T14:38:42;1.88;;;1.42;;
34960;SDS011;30789;52.030;7.110;2023-02-28T14:41:14;2.03;;;1.20;;
34960;SDS011;30789;52.030;7.110;2023-02-28T14:43:47;1.55;;;1.38;;
34960;SDS011;30789;52.030;7.110;2023-02-28T14:46:13;2.28;;;1.38;;
34960;SDS011;30789;52.030;7.110;2023-02-28T14:48:40;2.13;;;1.70;;
34960;SDS011;30789;52.030;7.110;2023-02-28T14:51:06;1.92;;;1.50;;
34960;SDS011;30789;52.030;7.110;2023-02-28T14:53:35;1.80;;;1.58;;
34960;SDS011;30789;52.030;7.110;2023-02-28T14:56:02;1.75;;;1.30;;
34960;SDS011;30789;52.030;7.110;2023-02-28T14:58:30;1.65;;;1.55;;
34960;SDS011;30789;52.030;7.110;2023-02-28T15:00:58;1.45;;;1.02;;
34960;SDS011;30789;52.030;7.110;2023-02-28T15:03:27;1.63;;;1.25;;
34960;SDS011;30789;52.030;7.110;2023-02-28T15:05:56;1.58;;;1.17;;
34960;SDS011;30789;52.030;7.110;2023-02-28T15:08:23;1.95;;;1.58;;
34960;SDS011;30789;52.030;7.110;2023-02-28T15:10:51;1.58;;;1.35;;
34960;SDS011;30789;52.030;7.110;2023-02-28T15:13:18;2.88;;;1.45;;
34960;SDS011;30789;52.030;7.110;2023-02-28T15:15:47;3.15;;;1.63;;
34960;SDS011;30789;52.030;7.110;2023-02-28T15:18:15;2.25;;;1.42;;
34960;SDS011;30789;52.030;7.110;2023-02-28T15:20:44;1.70;;;1.35;;
34960;SDS011;30789;52.030;7.110;2023-02-28T15:23:11;2.67;;;1.65;;
34960;SDS011;30789;52.030;7.110;2023-02-28T15:25:37;2.75;;;1.90;;